Time;durP1;ratioP1;P1;durP2;ratioP2;P2;SDS_P1;SDS_P2;PMS_P1;PMS_P2;Temp;Humidity;BMP_temperature;BMP_pressure;BME280_temperature;BME280_humidity;BME280_pressure;Samples;Min_cycle;Max_cycle;Signal;HPM_P1;HPM_P2
2021/11/27 00:00:46;;;;;;;11.65;4.80;;;;;;;;;;5006699;28;20100;-64
2021/11/27 00:03:15;;;;;;;10.52;5.20;;;;;;;;;;5009498;28;20057;-64
2021/11/27 00:05:45;;;;;;;9.07;4.80;;;;;;;;;;5004076;28;20057;-64
2021/11/27 00:08:14;;;;;;;12.23;5.03;;;;;;;;;;5009930;28;20046;-64
2021/11/27 00:10:44;;;;;;;9.95;4.80;;;;;;;;;;5010399;28;20120;-64
2021/11/27 00:13:13;;;;;;;9.40;4.63;;;;;;;;;;5011859;28;20137;-64
2021/11/27 00:15:42;;;;;;;9.50;4.70;;;;;;;;;;5011529;28;20487;-64
2021/11/27 00:18:11;;;;;;;11.73;4.75;;;;;;;;;;5011654;28;20054;-64
2021/11/27 00:20:41;;;;;;;12.60;4.95;;;;;;;;;;5011829;28;20096;-64
2021/11/27 00:23:11;;;;;;;8.70;5.20;;;;;;;;;;5012017;28;20567;-64
2021/11/27 00:25:40;;;;;;;11.55;5.07;;;;;;;;;;5011656;28;20508;-64
2021/11/27 00:28:09;;;;;;;8.07;4.18;;;;;;;;;;5010727;28;20049;-64
2021/11/27 00:30:38;;;;;;;8.93;4.38;;;;;;;;;;5010773;28;20050;-64
2021/11/27 00:33:07;;;;;;;11.65;4.63;;;;;;;;;;5011275;28;20050;-64
2021/11/27 00:35:35;;;;;;;9.35;4.40;;;;;;;;;;5010719;28;20509;-64
2021/11/27 00:38:06;;;;;;;12.65;4.80;;;;;;;;;;5011147;28;20077;-64
2021/11/27 00:40:37;;;;;;;10.30;4.50;;;;;;;;;;5010491;28;20034;-64
2021/11/27 00:43:07;;;;;;;11.55;5.10;;;;;;;;;;5010682;28;20234;-64
2021/11/27 00:45:37;;;;;;;7.85;3.80;;;;;;;;;;5011474;28;20133;-64
2021/11/27 00:48:05;;;;;;;8.93;3.28;;;;;;;;;;5008541;28;20577;-64
2021/11/27 00:50:36;;;;;;;10.85;4.65;;;;;;;;;;5009584;28;20065;-64
2021/11/27 00:53:05;;;;;;;8.30;4.15;;;;;;;;;;5011537;28;20168;-64
2021/11/27 00:55:34;;;;;;;9.45;4.22;;;;;;;;;;5009777;28;20042;-64
2021/11/27 00:58:04;;;;;;;9.07;4.22;;;;;;;;;;5014382;28;20413;-64
2021/11/27 01:00:34;;;;;;;8.35;3.83;;;;;;;;;;5010085;28;20053;-64
2021/11/27 01:03:05;;;;;;;9.40;4.18;;;;;;;;;;5008819;28;20100;-64
2021/11/27 01:05:34;;;;;;;6.32;3.55;;;;;;;;;;5010862;28;20041;-64
2021/11/27 01:08:02;;;;;;;8.23;3.65;;;;;;;;;;5003111;28;20046;-64
2021/11/27 01:10:32;;;;;;;7.45;3.45;;;;;;;;;;5014970;28;20045;-64
2021/11/27 01:13:00;;;;;;;7.90;3.60;;;;;;;;;;5010477;28;20160;-64
2021/11/27 01:15:31;;;;;;;6.60;3.10;;;;;;;;;;5009487;28;20060;-64
2021/11/27 01:17:59;;;;;;;7.00;3.65;;;;;;;;;;5010998;28;20089;-64
2021/11/27 01:20:30;;;;;;;8.15;3.92;;;;;;;;;;5010170;28;20405;-64
2021/11/27 01:22:59;;;;;;;11.18;2.75;;;;;;;;;;5010396;28;20054;-64
2021/11/27 01:25:28;;;;;;;5.50;3.05;;;;;;;;;;5008351;28;20050;-64
2021/11/27 01:27:59;;;;;;;9.75;3.17;;;;;;;;;;4682980;28;10000562;-65
2021/11/27 01:30:27;;;;;;;7.70;3.42;;;;;;;;;;681241;28;10002515;-64
2021/11/27 01:32:57;;;;;;;6.10;3.10;;;;;;;;;;4963475;28;20146;-64
2021/11/27 01:35:26;;;;;;;8.15;3.20;;;;;;;;;;4970396;28;20530;-64
2021/11/27 01:37:54;;;;;;;6.30;3.10;;;;;;;;;;4972270;28;20105;-64
2021/11/27 01:40:25;;;;;;;4.93;2.85;;;;;;;;;;4965501;28;20043;-64
2021/11/27 01:42:53;;;;;;;6.38;2.83;;;;;;;;;;4970151;28;20121;-64
2021/11/27 01:45:25;;;;;;;6.25;3.13;;;;;;;;;;4973294;28;20109;-64
2021/11/27 01:47:54;;;;;;;7.50;2.85;;;;;;;;;;4969314;28;20051;-64
2021/11/27 01:50:25;;;;;;;6.13;3.40;;;;;;;;;;4970837;28;20498;-64
2021/11/27 01:52:54;;;;;;;7.75;3.03;;;;;;;;;;4969664;28;20498;-64
2021/11/27 01:55:23;;;;;;;5.13;2.97;;;;;;;;;;4969400;28;20079;-64
2021/11/27 01:57:51;;;;;;;7.43;2.88;;;;;;;;;;4971264;28;20125;-64
2021/11/27 02:00:22;;;;;;;4.25;2.42;;;;;;;;;;4967757;28;20086;-64
2021/11/27 02:02:51;;;;;;;6.68;3.15;;;;;;;;;;4969222;28;20039;-64
2021/11/27 02:05:20;;;;;;;8.35;2.83;;;;;;;;;;4968479;28;20047;-64
2021/11/27 02:07:51;;;;;;;5.60;3.08;;;;;;;;;;4970460;28;20058;-64
2021/11/27 02:10:20;;;;;;;5.57;2.80;;;;;;;;;;4967632;28;20082;-64
2021/11/27 02:12:48;;;;;;;5.43;2.78;;;;;;;;;;4969685;28;20057;-64
2021/11/27 02:15:18;;;;;;;3.67;2.20;;;;;;;;;;4968508;28;20063;-64
2021/11/27 02:17:46;;;;;;;7.57;2.95;;;;;;;;;;4970894;28;20054;-64
2021/11/27 02:20:15;;;;;;;7.07;2.88;;;;;;;;;;4969847;28;20137;-64
2021/11/27 02:22:44;;;;;;;4.20;2.40;;;;;;;;;;4969414;28;20465;-64
2021/11/27 02:25:15;;;;;;;6.70;2.40;;;;;;;;;;4969429;28;20054;-64
2021/11/27 02:27:45;;;;;;;7.88;2.58;;;;;;;;;;4973242;28;20050;-64
2021/11/27 02:30:14;;;;;;;4.63;2.15;;;;;;;;;;4986573;28;20053;-64
2021/11/27 02:32:43;;;;;;;7.03;3.00;;;;;;;;;;4996417;28;20371;-64
2021/11/27 02:35:11;;;;;;;4.53;2.65;;;;;;;;;;5008922;28;20536;-64
2021/11/27 02:37:40;;;;;;;4.63;1.98;;;;;;;;;;5008035;28;20112;-64
2021/11/27 02:40:11;;;;;;;5.18;2.40;;;;;;;;;;5007242;28;20046;-64
2021/11/27 02:42:39;;;;;;;6.45;2.47;;;;;;;;;;5007557;28;20125;-64
2021/11/27 02:45:10;;;;;;;5.03;2.60;;;;;;;;;;4995992;28;20460;-64
2021/11/27 02:47:40;;;;;;;3.97;2.13;;;;;;;;;;5007780;28;20057;-65
2021/11/27 02:50:09;;;;;;;5.35;2.67;;;;;;;;;;5010498;28;20049;-64
2021/11/27 02:52:37;;;;;;;7.43;2.80;;;;;;;;;;5006518;28;20489;-64
2021/11/27 02:55:06;;;;;;;8.65;2.70;;;;;;;;;;5009775;28;20050;-64
2021/11/27 02:57:36;;;;;;;4.32;2.40;;;;;;;;;;5006152;28;20049;-64
2021/11/27 03:00:05;;;;;;;4.20;2.33;;;;;;;;;;5009504;28;20050;-64
2021/11/27 03:02:34;;;;;;;3.53;1.90;;;;;;;;;;5009739;28;20041;-65
2021/11/27 03:05:02;;;;;;;4.22;2.10;;;;;;;;;;5010235;28;20107;-64
2021/11/27 03:07:31;;;;;;;4.45;2.30;;;;;;;;;;5012456;28;20050;-64
2021/11/27 03:09:59;;;;;;;4.03;1.98;;;;;;;;;;5008321;28;20374;-64
2021/11/27 03:12:28;;;;;;;6.13;2.55;;;;;;;;;;5013765;28;20140;-64
2021/11/27 03:14:58;;;;;;;4.40;2.40;;;;;;;;;;5020114;28;20544;-64
2021/11/27 03:17:27;;;;;;;4.78;2.33;;;;;;;;;;5012862;28;20050;-64
2021/11/27 03:19:56;;;;;;;3.38;2.05;;;;;;;;;;5011494;28;21068;-64
2021/11/27 03:22:24;;;;;;;3.25;1.75;;;;;;;;;;5012256;28;20128;-64
2021/11/27 03:24:52;;;;;;;3.65;1.70;;;;;;;;;;5014574;28;20486;-64
2021/11/27 03:27:21;;;;;;;6.03;2.35;;;;;;;;;;5010491;28;20064;-64
2021/11/27 03:29:49;;;;;;;4.25;1.85;;;;;;;;;;5018381;28;20057;-64
2021/11/27 03:32:19;;;;;;;5.03;2.20;;;;;;;;;;5014301;28;20136;-64
2021/11/27 03:34:48;;;;;;;5.88;2.33;;;;;;;;;;5004440;28;20490;-64
2021/11/27 03:37:17;;;;;;;4.43;2.20;;;;;;;;;;5005775;28;20415;-64
2021/11/27 03:39:45;;;;;;;4.43;1.98;;;;;;;;;;5017693;28;20045;-64
2021/11/27 03:42:14;;;;;;;5.45;2.40;;;;;;;;;;5023871;28;20345;-64
2021/11/27 03:44:43;;;;;;;3.13;1.60;;;;;;;;;;5012621;28;20423;-64
2021/11/27 03:47:12;;;;;;;3.65;1.83;;;;;;;;;;5010704;28;20052;-64
2021/11/27 03:49:42;;;;;;;5.18;1.98;;;;;;;;;;5013653;28;20073;-64
2021/11/27 03:52:10;;;;;;;4.97;2.00;;;;;;;;;;5009138;28;20053;-64
2021/11/27 03:54:39;;;;;;;3.45;2.40;;;;;;;;;;5012070;28;20049;-64
2021/11/27 03:57:07;;;;;;;3.58;2.03;;;;;;;;;;5008472;28;20596;-64
2021/11/27 03:59:36;;;;;;;2.38;1.77;;;;;;;;;;5007591;28;20481;-64
2021/11/27 04:02:04;;;;;;;3.30;2.20;;;;;;;;;;5013189;28;20056;-64
2021/11/27 04:04:34;;;;;;;5.32;2.35;;;;;;;;;;5022498;28;20142;-64
2021/11/27 04:07:04;;;;;;;2.97;2.22;;;;;;;;;;5012372;28;20062;-64
2021/11/27 04:09:33;;;;;;;6.03;2.35;;;;;;;;;;5005967;28;20571;-64
2021/11/27 04:12:01;;;;;;;5.78;2.83;;;;;;;;;;5012277;28;20057;-64
2021/11/27 04:14:30;;;;;;;4.38;2.28;;;;;;;;;;5010987;28;20038;-64
2021/11/27 04:16:58;;;;;;;6.72;2.40;;;;;;;;;;5009795;28;20494;-64
2021/11/27 04:19:26;;;;;;;5.90;2.63;;;;;;;;;;5009130;28;20137;-64
2021/11/27 04:21:55;;;;;;;4.60;2.40;;;;;;;;;;5008780;28;20500;-64
2021/11/27 04:24:25;;;;;;;4.30;2.63;;;;;;;;;;5009846;28;20050;-64
2021/11/27 04:26:53;;;;;;;4.88;2.47;;;;;;;;;;5010135;28;20050;-64
2021/11/27 04:29:21;;;;;;;3.40;1.88;;;;;;;;;;5008043;28;20512;-64
2021/11/27 04:31:50;;;;;;;4.43;2.40;;;;;;;;;;5011059;28;20064;-64
2021/11/27 04:34:18;;;;;;;5.57;2.72;;;;;;;;;;5005543;28;20104;-64
2021/11/27 04:36:47;;;;;;;4.13;2.70;;;;;;;;;;5012064;28;20052;-64
2021/11/27 04:39:15;;;;;;;5.65;2.78;;;;;;;;;;5008610;28;20073;-64
2021/11/27 04:41:45;;;;;;;4.00;2.30;;;;;;;;;;5010709;28;20060;-65
2021/11/27 04:44:14;;;;;;;7.63;2.88;;;;;;;;;;5011303;28;20042;-64
2021/11/27 04:46:42;;;;;;;6.40;3.03;;;;;;;;;;5011881;28;20049;-64
2021/11/27 04:49:11;;;;;;;5.20;2.65;;;;;;;;;;5010963;28;20073;-64
2021/11/27 04:51:39;;;;;;;5.47;2.78;;;;;;;;;;5002204;28;20380;-64
2021/11/27 04:54:07;;;;;;;8.65;3.35;;;;;;;;;;5013662;28;20049;-64
2021/11/27 04:56:36;;;;;;;7.82;3.35;;;;;;;;;;5009401;28;20083;-64
2021/11/27 04:59:06;;;;;;;9.10;3.67;;;;;;;;;;5011418;28;20149;-64
2021/11/27 05:01:34;;;;;;;6.00;3.22;;;;;;;;;;5007069;28;20073;-64
2021/11/27 05:04:03;;;;;;;6.78;3.13;;;;;;;;;;4997670;28;20046;-64
2021/11/27 05:06:31;;;;;;;9.90;3.72;;;;;;;;;;5010956;28;20064;-64
2021/11/27 05:09:00;;;;;;;6.22;3.70;;;;;;;;;;5007017;28;20050;-64
2021/11/27 05:11:28;;;;;;;10.18;3.35;;;;;;;;;;5013506;28;20053;-64
2021/11/27 05:13:56;;;;;;;5.38;3.33;;;;;;;;;;5010315;28;20438;-64
2021/11/27 05:16:26;;;;;;;8.43;3.42;;;;;;;;;;5011480;28;20061;-64
2021/11/27 05:18:55;;;;;;;4.18;2.63;;;;;;;;;;5010332;28;20045;-64
2021/11/27 05:21:23;;;;;;;7.85;3.55;;;;;;;;;;5009956;28;20482;-64
2021/11/27 05:23:53;;;;;;;8.48;3.30;;;;;;;;;;5009165;28;21390;-64
2021/11/27 05:26:21;;;;;;;10.45;3.88;;;;;;;;;;5009058;28;20488;-64
2021/11/27 05:28:50;;;;;;;6.05;3.13;;;;;;;;;;5007544;28;20045;-64
2021/11/27 05:31:19;;;;;;;5.60;2.85;;;;;;;;;;5011793;28;20060;-64
2021/11/27 05:34:09;;;;;;;5.75;2.75;;;;;;;;;;5007658;28;20068;-64
2021/11/27 05:36:40;;;;;;;5.95;2.70;;;;;;;;;;5008771;28;20524;-64
2021/11/27 05:39:08;;;;;;;6.70;3.10;;;;;;;;;;4999243;28;20045;-64
2021/11/27 05:41:37;;;;;;;6.35;3.78;;;;;;;;;;5010481;28;20050;-64
2021/11/27 05:44:05;;;;;;;8.30;3.65;;;;;;;;;;5005083;28;20401;-64
2021/11/27 05:46:34;;;;;;;8.15;3.60;;;;;;;;;;5009977;28;20425;-64
2021/11/27 05:49:03;;;;;;;4.82;2.53;;;;;;;;;;5007017;28;20049;-64
2021/11/27 05:51:32;;;;;;;6.78;2.90;;;;;;;;;;5003992;28;20056;-64
2021/11/27 05:54:00;;;;;;;4.35;2.67;;;;;;;;;;5009120;28;20503;-64
2021/11/27 05:56:28;;;;;;;6.22;2.83;;;;;;;;;;5002818;28;20053;-64
2021/11/27 05:58:56;;;;;;;7.60;3.35;;;;;;;;;;5005933;28;20681;-64
2021/11/27 06:01:25;;;;;;;6.88;3.38;;;;;;;;;;5009127;28;20092;-64
2021/11/27 06:03:53;;;;;;;7.45;2.85;;;;;;;;;;5007522;28;20061;-64
2021/11/27 06:06:23;;;;;;;5.70;2.85;;;;;;;;;;4999911;28;20048;-64
2021/11/27 06:08:51;;;;;;;4.18;2.25;;;;;;;;;;5008644;28;20084;-64
2021/11/27 06:11:19;;;;;;;3.97;2.55;;;;;;;;;;5010033;28;20460;-64
2021/11/27 06:13:48;;;;;;;4.72;2.58;;;;;;;;;;5009961;28;20406;-64
2021/11/27 06:16:16;;;;;;;4.93;2.38;;;;;;;;;;5009047;28;20054;-64
2021/11/27 06:18:44;;;;;;;5.35;3.03;;;;;;;;;;5008863;28;20335;-64
2021/11/27 06:21:13;;;;;;;6.05;2.90;;;;;;;;;;5008062;28;20053;-64
2021/11/27 06:23:42;;;;;;;4.72;2.30;;;;;;;;;;5008499;28;20072;-64
2021/11/27 06:26:11;;;;;;;7.28;2.75;;;;;;;;;;5000690;28;20054;-64
2021/11/27 06:28:39;;;;;;;6.00;2.47;;;;;;;;;;5008119;28;20124;-64
2021/11/27 06:31:07;;;;;;;5.60;2.38;;;;;;;;;;5006479;28;20057;-64
2021/11/27 06:33:37;;;;;;;5.93;2.75;;;;;;;;;;5008391;28;20112;-64
2021/11/27 06:36:05;;;;;;;5.20;2.28;;;;;;;;;;5007897;28;20081;-64
2021/11/27 06:38:34;;;;;;;6.45;2.58;;;;;;;;;;5008122;28;20382;-68
2021/11/27 06:41:04;;;;;;;4.97;2.60;;;;;;;;;;5008971;28;20049;-64
2021/11/27 06:43:33;;;;;;;4.72;2.55;;;;;;;;;;5009964;28;20093;-64
2021/11/27 06:46:01;;;;;;;5.68;2.85;;;;;;;;;;5008615;28;20038;-64
2021/11/27 06:48:31;;;;;;;5.13;2.25;;;;;;;;;;5016219;28;20140;-64
2021/11/27 06:51:00;;;;;;;4.47;2.67;;;;;;;;;;5017948;28;20041;-64
2021/11/27 06:53:29;;;;;;;3.65;2.53;;;;;;;;;;5014292;28;20053;-64
2021/11/27 06:55:57;;;;;;;7.40;3.03;;;;;;;;;;5016050;28;20050;-64
2021/11/27 06:58:27;;;;;;;4.70;2.50;;;;;;;;;;5014711;28;20045;-64
2021/11/27 07:00:56;;;;;;;5.60;3.22;;;;;;;;;;5014490;28;20053;-64
2021/11/27 07:03:25;;;;;;;5.95;2.58;;;;;;;;;;5006306;28;20054;-64
2021/11/27 07:05:53;;;;;;;5.03;2.50;;;;;;;;;;5015889;28;20100;-64
2021/11/27 07:08:22;;;;;;;4.30;2.50;;;;;;;;;;5015605;28;20049;-64
2021/11/27 07:10:50;;;;;;;4.55;2.55;;;;;;;;;;5008855;28;20050;-64
2021/11/27 07:13:19;;;;;;;4.28;2.55;;;;;;;;;;5012669;28;20046;-64
2021/11/27 07:15:49;;;;;;;7.57;2.95;;;;;;;;;;5015932;28;20073;-64
2021/11/27 07:18:17;;;;;;;3.40;2.13;;;;;;;;;;5017058;28;20045;-64
2021/11/27 07:20:45;;;;;;;4.68;2.65;;;;;;;;;;5025664;28;20045;-64
2021/11/27 07:23:14;;;;;;;8.73;3.03;;;;;;;;;;5012514;28;20058;-64
2021/11/27 07:25:42;;;;;;;5.28;2.42;;;;;;;;;;5014724;28;20052;-64
2021/11/27 07:28:10;;;;;;;7.43;2.70;;;;;;;;;;5016286;28;20141;-64
2021/11/27 07:30:39;;;;;;;5.43;2.22;;;;;;;;;;5012196;28;20056;-64
2021/11/27 07:33:09;;;;;;;4.03;2.42;;;;;;;;;;5011285;28;20142;-64
2021/11/27 07:35:38;;;;;;;5.55;2.90;;;;;;;;;;5003898;28;20060;-64
2021/11/27 07:38:06;;;;;;;4.22;2.53;;;;;;;;;;5006607;28;20050;-64
2021/11/27 07:40:34;;;;;;;4.25;2.25;;;;;;;;;;5004259;28;20468;-64
2021/11/27 07:43:05;;;;;;;6.75;2.67;;;;;;;;;;5009343;28;20064;-64
2021/11/27 07:45:34;;;;;;;7.93;2.65;;;;;;;;;;5009189;28;20409;-64
2021/11/27 07:48:03;;;;;;;6.18;2.85;;;;;;;;;;5004704;28;20053;-64
2021/11/27 07:50:32;;;;;;;7.63;3.28;;;;;;;;;;5004457;28;20068;-64
2021/11/27 07:53:01;;;;;;;7.63;3.33;;;;;;;;;;5019322;28;20053;-64
2021/11/27 07:55:29;;;;;;;6.18;2.80;;;;;;;;;;5003670;28;20195;-64
2021/11/27 07:57:58;;;;;;;4.53;2.65;;;;;;;;;;5003414;28;20057;-64
2021/11/27 08:00:26;;;;;;;7.38;3.28;;;;;;;;;;4998228;28;20045;-64
2021/11/27 08:02:55;;;;;;;5.53;3.20;;;;;;;;;;4999566;28;20334;-64
2021/11/27 08:05:23;;;;;;;5.47;3.03;;;;;;;;;;5002088;28;20413;-64
2021/11/27 08:07:53;;;;;;;7.05;3.05;;;;;;;;;;4998146;28;20046;-64
2021/11/27 08:10:21;;;;;;;8.02;3.80;;;;;;;;;;4996851;28;20357;-64
2021/11/27 08:12:55;;;;;;;5.03;2.78;;;;;;;;;;4997871;28;20596;-64
2021/11/27 08:15:23;;;;;;;5.78;2.97;;;;;;;;;;4999345;28;20455;-64
2021/11/27 08:17:52;;;;;;;4.13;2.40;;;;;;;;;;4998154;28;20396;-64
2021/11/27 08:20:21;;;;;;;6.03;2.75;;;;;;;;;;4997257;28;20053;-64
2021/11/27 08:22:49;;;;;;;5.03;2.60;;;;;;;;;;4993132;28;20054;-64
2021/11/27 08:25:19;;;;;;;7.10;3.00;;;;;;;;;;4998709;28;20069;-64
2021/11/27 08:27:48;;;;;;;6.20;2.90;;;;;;;;;;4996712;28;20046;-64
2021/11/27 08:30:16;;;;;;;6.28;2.70;;;;;;;;;;4998743;28;20144;-64
2021/11/27 08:32:48;;;;;;;5.72;2.70;;;;;;;;;;4999697;28;20050;-64
2021/11/27 08:35:16;;;;;;;5.40;2.72;;;;;;;;;;4999576;28;20069;-64
2021/11/27 08:37:45;;;;;;;6.75;2.80;;;;;;;;;;4999469;28;20351;-64
2021/11/27 08:40:14;;;;;;;7.40;3.22;;;;;;;;;;4998650;28;20128;-64
2021/11/27 08:42:43;;;;;;;5.20;2.92;;;;;;;;;;4998718;28;20069;-64
2021/11/27 08:45:12;;;;;;;6.30;2.80;;;;;;;;;;4999912;28;20081;-64
2021/11/27 08:47:40;;;;;;;6.25;2.90;;;;;;;;;;4999325;28;20042;-64
2021/11/27 08:50:10;;;;;;;6.93;3.20;;;;;;;;;;4999592;28;20426;-64
2021/11/27 08:52:38;;;;;;;6.22;3.38;;;;;;;;;;4997412;28;20060;-64
2021/11/27 08:55:07;;;;;;;4.25;2.38;;;;;;;;;;5001791;28;20058;-64
2021/11/27 08:57:36;;;;;;;4.72;2.55;;;;;;;;;;4998382;28;20520;-64
2021/11/27 09:00:07;;;;;;;4.22;2.40;;;;;;;;;;4997982;28;20136;-64
2021/11/27 09:02:35;;;;;;;7.18;3.40;;;;;;;;;;4995380;28;20160;-64
2021/11/27 09:05:04;;;;;;;7.63;2.97;;;;;;;;;;4999569;28;20132;-64
2021/11/27 09:07:32;;;;;;;5.03;2.83;;;;;;;;;;4997793;28;20050;-64
2021/11/27 09:10:01;;;;;;;5.00;2.58;;;;;;;;;;5002578;28;20306;-64
2021/11/27 09:12:30;;;;;;;5.95;3.05;;;;;;;;;;5000463;28;20045;-64
2021/11/27 09:14:58;;;;;;;6.80;2.80;;;;;;;;;;5008160;28;20046;-64
2021/11/27 09:17:28;;;;;;;6.20;2.58;;;;;;;;;;5006208;28;20073;-64
2021/11/27 09:19:56;;;;;;;4.82;2.92;;;;;;;;;;5004531;28;20149;-64
2021/11/27 09:22:25;;;;;;;10.15;3.47;;;;;;;;;;5006688;28;20077;-64
2021/11/27 09:24:53;;;;;;;10.57;3.28;;;;;;;;;;5000539;28;20046;-64
2021/11/27 09:27:22;;;;;;;6.22;3.40;;;;;;;;;;5003933;28;20049;-64
2021/11/27 09:29:50;;;;;;;5.80;2.47;;;;;;;;;;4993380;28;20072;-64
2021/11/27 09:32:19;;;;;;;5.80;3.10;;;;;;;;;;4999301;28;20541;-64
2021/11/27 09:34:49;;;;;;;4.68;2.50;;;;;;;;;;5005210;28;20797;-64
2021/11/27 09:37:18;;;;;;;6.15;2.92;;;;;;;;;;5004107;28;20072;-64
2021/11/27 09:39:47;;;;;;;5.75;2.45;;;;;;;;;;5005149;28;20056;-64
2021/11/27 09:42:16;;;;;;;5.20;2.92;;;;;;;;;;5005146;28;20511;-64
2021/11/27 09:44:51;;;;;;;5.88;2.67;;;;;;;;;;5004787;28;20129;-64
2021/11/27 09:47:20;;;;;;;4.93;2.78;;;;;;;;;;5001587;28;20128;-64
2021/11/27 09:49:50;;;;;;;6.15;3.05;;;;;;;;;;5004369;28;20054;-64
2021/11/27 09:52:19;;;;;;;6.07;2.95;;;;;;;;;;5001457;28;20162;-64
2021/11/27 09:54:47;;;;;;;7.80;3.15;;;;;;;;;;5008317;28;20524;-64
2021/11/27 09:57:16;;;;;;;5.25;3.17;;;;;;;;;;5014153;28;20135;-64
2021/11/27 09:59:46;;;;;;;5.75;3.03;;;;;;;;;;5005110;28;20085;-64
2021/11/27 10:02:17;;;;;;;6.95;3.05;;;;;;;;;;4999128;28;20049;-64
2021/11/27 10:05:08;;;;;;;5.68;2.92;;;;;;;;;;4998704;28;20057;-64
2021/11/27 10:07:37;;;;;;;4.68;2.63;;;;;;;;;;5003744;28;20056;-64
2021/11/27 10:10:09;;;;;;;6.28;2.65;;;;;;;;;;5004929;28;20061;-64
2021/11/27 10:12:39;;;;;;;4.93;2.50;;;;;;;;;;5001495;28;20489;-64
2021/11/27 10:15:09;;;;;;;6.35;3.10;;;;;;;;;;4999960;28;20046;-64
2021/11/27 10:17:38;;;;;;;6.10;2.80;;;;;;;;;;4999852;28;20083;-64
2021/11/27 10:20:09;;;;;;;4.55;2.55;;;;;;;;;;4997723;28;20498;-64
2021/11/27 10:22:52;;;;;;;5.28;3.15;;;;;;;;;;4999016;28;20505;-64
2021/11/27 10:25:24;;;;;;;6.38;2.70;;;;;;;;;;4997100;28;20088;-64
2021/11/27 10:28:02;;;;;;;5.22;2.60;;;;;;;;;;5002494;28;20058;-64
2021/11/27 10:30:36;;;;;;;7.93;2.63;;;;;;;;;;4997140;28;20506;-64
2021/11/27 10:33:05;;;;;;;4.83;2.40;;;;;;;;;;4996568;28;20065;-64
2021/11/27 10:35:35;;;;;;;6.78;2.88;;;;;;;;;;4997863;28;20498;-64
2021/11/27 10:38:07;;;;;;;5.00;2.55;;;;;;;;;;4997639;28;20061;-64
2021/11/27 10:40:36;;;;;;;5.13;2.22;;;;;;;;;;4996609;28;20528;-64
2021/11/27 10:43:06;;;;;;;4.63;2.67;;;;;;;;;;4996401;28;20046;-64
2021/11/27 10:45:36;;;;;;;4.65;2.40;;;;;;;;;;4997579;28;20080;-64
2021/11/27 10:48:09;;;;;;;5.22;2.35;;;;;;;;;;4996989;28;20053;-64
2021/11/27 10:50:40;;;;;;;5.00;2.80;;;;;;;;;;4997296;28;20133;-64
2021/11/27 10:53:10;;;;;;;4.40;2.80;;;;;;;;;;4999205;28;20049;-64
2021/11/27 10:55:39;;;;;;;5.82;3.05;;;;;;;;;;4999032;28;20443;-64
2021/11/27 10:58:09;;;;;;;4.90;2.55;;;;;;;;;;5005640;28;20189;-64
2021/11/27 11:00:40;;;;;;;5.18;2.75;;;;;;;;;;5004202;28;20141;-64
2021/11/27 11:03:25;;;;;;;4.93;2.55;;;;;;;;;;5004191;28;20046;-64
2021/11/27 11:05:56;;;;;;;5.85;3.47;;;;;;;;;;4999591;28;20456;-64
2021/11/27 11:08:35;;;;;;;7.72;3.25;;;;;;;;;;4997903;28;20050;-64
2021/11/27 11:11:23;;;;;;;12.27;3.08;;;;;;;;;;4996972;28;20516;-64
2021/11/27 11:13:54;;;;;;;5.18;2.65;;;;;;;;;;4997284;28;20050;-64
2021/11/27 11:16:23;;;;;;;4.57;2.22;;;;;;;;;;4997190;28;20069;-64
2021/11/27 11:18:54;;;;;;;5.95;2.60;;;;;;;;;;5000919;28;20045;-64
2021/11/27 11:21:24;;;;;;;4.50;2.58;;;;;;;;;;4997071;28;20101;-64
2021/11/27 11:23:53;;;;;;;10.88;3.17;;;;;;;;;;4997258;28;20046;-64
2021/11/27 11:26:41;;;;;;;4.30;2.25;;;;;;;;;;4997017;28;20046;-64
2021/11/27 11:29:09;;;;;;;3.88;2.80;;;;;;;;;;4996854;28;20054;-64
2021/11/27 11:31:38;;;;;;;7.05;2.40;;;;;;;;;;4997785;28;20140;-64
2021/11/27 11:34:07;;;;;;;5.30;2.40;;;;;;;;;;4997497;28;20053;-64
2021/11/27 11:36:56;;;;;;;4.07;2.10;;;;;;;;;;5000921;28;20058;-64
2021/11/27 11:39:25;;;;;;;5.95;2.95;;;;;;;;;;4999135;28;20053;-64
2021/11/27 11:41:53;;;;;;;5.43;2.20;;;;;;;;;;4999403;28;20076;-64
2021/11/27 11:44:22;;;;;;;4.35;2.45;;;;;;;;;;4999591;28;20161;-64
2021/11/27 11:46:50;;;;;;;3.22;2.03;;;;;;;;;;4997441;28;20091;-64
2021/11/27 11:49:19;;;;;;;4.28;2.17;;;;;;;;;;4999754;28;21795;-64
2021/11/27 11:51:49;;;;;;;6.28;2.63;;;;;;;;;;5002867;28;20311;-64
2021/11/27 11:54:22;;;;;;;4.97;2.17;;;;;;;;;;5000419;28;20052;-64
2021/11/27 11:57:02;;;;;;;3.78;2.13;;;;;;;;;;5000729;28;20094;-64
2021/11/27 11:59:32;;;;;;;4.75;2.15;;;;;;;;;;5000397;28;20557;-64
2021/11/27 12:02:14;;;;;;;7.13;2.50;;;;;;;;;;4998586;28;20173;-64
2021/11/27 12:04:58;;;;;;;6.15;2.40;;;;;;;;;;5001230;28;20223;-64
2021/11/27 12:07:41;;;;;;;3.97;2.00;;;;;;;;;;4999282;28;20147;-64
2021/11/27 12:10:14;;;;;;;2.92;1.98;;;;;;;;;;4998261;28;20446;-64
2021/11/27 12:12:43;;;;;;;5.55;2.20;;;;;;;;;;4998637;28;20053;-64
2021/11/27 12:15:12;;;;;;;4.57;2.30;;;;;;;;;;5000331;28;20137;-64
2021/11/27 12:17:59;;;;;;;5.53;2.40;;;;;;;;;;4997506;28;20133;-64
2021/11/27 12:20:41;;;;;;;5.18;2.30;;;;;;;;;;4999869;28;20081;-64
2021/11/27 12:23:28;;;;;;;5.38;2.10;;;;;;;;;;4998354;28;20335;-64
2021/11/27 12:26:13;;;;;;;3.90;2.15;;;;;;;;;;4999742;28;20095;-64
2021/11/27 12:28:44;;;;;;;4.80;1.80;;;;;;;;;;4981612;28;20956;-64
2021/11/27 12:31:12;;;;;;;3.17;1.92;;;;;;;;;;4958674;28;20174;-64
2021/11/27 12:33:57;;;;;;;3.20;1.77;;;;;;;;;;4958315;28;20618;-64
2021/11/27 12:36:42;;;;;;;3.13;1.80;;;;;;;;;;4957202;28;20138;-64
2021/11/27 12:39:12;;;;;;;5.28;2.15;;;;;;;;;;4959537;28;20046;-64
2021/11/27 12:41:42;;;;;;;4.07;2.08;;;;;;;;;;4960110;28;20077;-64
2021/11/27 12:44:12;;;;;;;3.47;2.15;;;;;;;;;;4960276;28;20511;-64
2021/11/27 12:46:43;;;;;;;3.75;1.88;;;;;;;;;;4957466;28;20507;-65
2021/11/27 12:49:42;;;;;;;3.97;1.70;;;;;;;;;;4961876;28;20504;-64
2021/11/27 12:52:27;;;;;;;2.30;1.50;;;;;;;;;;4958819;28;20491;-64
2021/11/27 12:54:56;;;;;;;4.13;1.27;;;;;;;;;;4960024;28;20063;-65
2021/11/27 12:57:25;;;;;;;3.55;1.60;;;;;;;;;;4962097;28;20053;-65
2021/11/27 13:00:06;;;;;;;2.47;1.80;;;;;;;;;;4959946;28;20054;-65
2021/11/27 13:02:34;;;;;;;3.40;1.80;;;;;;;;;;4959139;28;20138;-64
2021/11/27 13:05:02;;;;;;;2.55;1.60;;;;;;;;;;4960715;28;20406;-64
2021/11/27 13:07:31;;;;;;;3.20;1.90;;;;;;;;;;4958324;28;20101;-65
2021/11/27 13:10:02;;;;;;;2.88;1.75;;;;;;;;;;4959065;28;20428;-65
2021/11/27 13:12:31;;;;;;;5.35;2.00;;;;;;;;;;4959228;28;20078;-65
2021/11/27 13:15:14;;;;;;;4.47;2.05;;;;;;;;;;4959751;28;20275;-65
2021/11/27 13:17:43;;;;;;;4.38;2.03;;;;;;;;;;4959257;28;20595;-65
2021/11/27 13:20:11;;;;;;;3.35;1.70;;;;;;;;;;4960226;28;20454;-65
2021/11/27 13:22:40;;;;;;;4.97;1.83;;;;;;;;;;4958326;28;20047;-65
2021/11/27 13:25:09;;;;;;;8.43;1.92;;;;;;;;;;4959734;28;20145;-65
2021/11/27 13:27:40;;;;;;;4.00;1.65;;;;;;;;;;4958776;28;20162;-65
2021/11/27 13:30:10;;;;;;;4.97;1.77;;;;;;;;;;4978891;28;20413;-65
2021/11/27 13:32:43;;;;;;;3.55;1.80;;;;;;;;;;4998543;28;20053;-65
2021/11/27 13:35:13;;;;;;;3.58;1.75;;;;;;;;;;4999209;28;20107;-65
2021/11/27 13:37:44;;;;;;;4.50;1.80;;;;;;;;;;4999545;28;20053;-65
2021/11/27 13:40:14;;;;;;;2.95;1.20;;;;;;;;;;4999809;28;20068;-65
2021/11/27 13:42:43;;;;;;;3.55;1.52;;;;;;;;;;4996624;28;20045;-65
2021/11/27 13:45:11;;;;;;;4.40;1.30;;;;;;;;;;4998551;28;20397;-65
2021/11/27 13:47:41;;;;;;;1.90;1.30;;;;;;;;;;4999367;28;20659;-65
2021/11/27 13:50:13;;;;;;;2.80;1.38;;;;;;;;;;4997242;28;20050;-65
2021/11/27 13:52:45;;;;;;;1.83;1.25;;;;;;;;;;4998509;28;20092;-65
2021/11/27 13:55:15;;;;;;;2.95;1.17;;;;;;;;;;4998163;28;20444;-65
2021/11/27 13:57:44;;;;;;;3.10;1.27;;;;;;;;;;4998907;28;20346;-65
2021/11/27 14:00:13;;;;;;;2.55;1.35;;;;;;;;;;4996929;28;20486;-65
2021/11/27 14:02:43;;;;;;;2.05;1.30;;;;;;;;;;4996738;28;20519;-64
2021/11/27 14:05:12;;;;;;;5.90;1.77;;;;;;;;;;5000200;28;20149;-65
2021/11/27 14:07:41;;;;;;;3.92;1.77;;;;;;;;;;4999478;28;20368;-65
2021/11/27 14:10:14;;;;;;;5.10;1.90;;;;;;;;;;4998392;28;20046;-65
2021/11/27 14:12:43;;;;;;;3.47;1.30;;;;;;;;;;4995784;28;20056;-65
2021/11/27 14:15:13;;;;;;;2.00;1.15;;;;;;;;;;4998092;28;20045;-65
2021/11/27 14:17:42;;;;;;;2.28;1.20;;;;;;;;;;5001035;28;20064;-65
2021/11/27 14:20:17;;;;;;;4.25;1.10;;;;;;;;;;5000740;28;20046;-65
2021/11/27 14:23:06;;;;;;;2.45;1.20;;;;;;;;;;5000841;28;20085;-65
2021/11/27 14:25:36;;;;;;;4.82;0.98;;;;;;;;;;4996231;28;20052;-65
2021/11/27 14:28:06;;;;;;;2.00;1.00;;;;;;;;;;5002016;28;20069;-65
2021/11/27 14:30:36;;;;;;;2.50;1.00;;;;;;;;;;5001609;28;20108;-65
2021/11/27 14:33:18;;;;;;;1.92;1.02;;;;;;;;;;5001201;28;20141;-65
2021/11/27 14:35:55;;;;;;;3.13;1.20;;;;;;;;;;5000957;28;20128;-65
2021/11/27 14:38:34;;;;;;;2.05;1.10;;;;;;;;;;5001326;28;20401;-65
2021/11/27 14:41:03;;;;;;;1.83;1.30;;;;;;;;;;5000895;28;20375;-65
2021/11/27 14:43:32;;;;;;;1.17;0.95;;;;;;;;;;5001365;28;20050;-65
2021/11/27 14:46:02;;;;;;;2.92;1.27;;;;;;;;;;5001088;28;20578;-65
2021/11/27 14:48:31;;;;;;;2.90;1.63;;;;;;;;;;5001366;28;20088;-65
2021/11/27 14:51:02;;;;;;;3.78;1.50;;;;;;;;;;5001940;28;20581;-65
2021/11/27 14:53:35;;;;;;;2.20;1.27;;;;;;;;;;5001927;28;20141;-65
2021/11/27 14:56:04;;;;;;;3.08;1.98;;;;;;;;;;5001859;28;20137;-65
2021/11/27 14:58:33;;;;;;;3.17;1.50;;;;;;;;;;5004490;28;20053;-65
2021/11/27 15:01:04;;;;;;;3.17;1.10;;;;;;;;;;5008936;28;20050;-65